sensor_id;sensor_type;location;lat;lon;timestamp;pressure;altitude;pressure_sealevel;temperature
70333;BMP280;57747;43.548;-5.704;2022-09-09T00:08:02;101864.53;;;20.26
70333;BMP280;57747;43.548;-5.704;2022-09-09T00:13:16;101869.19;;;20.26
70333;BMP280;57747;43.548;-5.704;2022-09-09T00:21:16;101858.44;;;20.38
70333;BMP280;57747;43.548;-5.704;2022-09-09T00:23:53;101860.38;;;20.38
70333;BMP280;57747;43.548;-5.704;2022-09-09T00:26:45;101857.31;;;20.39
70333;BMP280;57747;43.548;-5.704;2022-09-09T00:35:59;101851.09;;;20.30
70333;BMP280;57747;43.548;-5.704;2022-09-09T00:38:33;101850.56;;;20.19
70333;BMP280;57747;43.548;-5.704;2022-09-09T00:44:00;101852.84;;;20.17
70333;BMP280;57747;43.548;-5.704;2022-09-09T00:53:51;101854.41;;;20.18
70333;BMP280;57747;43.548;-5.704;2022-09-09T01:05:18;101856.00;;;20.02
70333;BMP280;57747;43.548;-5.704;2022-09-09T01:07:48;101865.28;;;20.01
70333;BMP280;57747;43.548;-5.704;2022-09-09T01:10:36;101863.03;;;19.94
70333;BMP280;57747;43.548;-5.704;2022-09-09T01:13:13;101861.13;;;19.95
70333;BMP280;57747;43.548;-5.704;2022-09-09T01:15:42;101859.66;;;19.88
70333;BMP280;57747;43.548;-5.704;2022-09-09T01:18:12;101864.28;;;19.88
70333;BMP280;57747;43.548;-5.704;2022-09-09T01:20:50;101852.47;;;20.01
70333;BMP280;57747;43.548;-5.704;2022-09-09T01:28:46;101852.44;;;19.75
70333;BMP280;57747;43.548;-5.704;2022-09-09T01:31:20;101862.84;;;19.73
70333;BMP280;57747;43.548;-5.704;2022-09-09T01:33:47;101857.38;;;19.73
70333;BMP280;57747;43.548;-5.704;2022-09-09T01:36:26;101859.09;;;19.60
70333;BMP280;57747;43.548;-5.704;2022-09-09T01:38:55;101858.31;;;19.68
70333;BMP280;57747;43.548;-5.704;2022-09-09T01:41:24;101861.03;;;19.68
70333;BMP280;57747;43.548;-5.704;2022-09-09T01:43:50;101854.13;;;19.62
70333;BMP280;57747;43.548;-5.704;2022-09-09T01:46:18;101850.34;;;19.72
70333;BMP280;57747;43.548;-5.704;2022-09-09T01:48:51;101864.41;;;19.74
70333;BMP280;57747;43.548;-5.704;2022-09-09T01:51:17;101858.25;;;19.82
70333;BMP280;57747;43.548;-5.704;2022-09-09T01:53:43;101855.97;;;19.84
70333;BMP280;57747;43.548;-5.704;2022-09-09T02:04:45;101865.38;;;19.78
70333;BMP280;57747;43.548;-5.704;2022-09-09T02:10:10;101866.06;;;19.93
70333;BMP280;57747;43.548;-5.704;2022-09-09T02:12:41;101866.88;;;19.93
70333;BMP280;57747;43.548;-5.704;2022-09-09T02:15:20;101871.88;;;19.91
70333;BMP280;57747;43.548;-5.704;2022-09-09T02:18:10;101875.69;;;19.90
70333;BMP280;57747;43.548;-5.704;2022-09-09T02:20:38;101874.84;;;19.81
70333;BMP280;57747;43.548;-5.704;2022-09-09T02:23:05;101867.16;;;19.83
70333;BMP280;57747;43.548;-5.704;2022-09-09T02:25:36;101869.44;;;19.89
70333;BMP280;57747;43.548;-5.704;2022-09-09T02:28:06;101872.28;;;19.84
70333;BMP280;57747;43.548;-5.704;2022-09-09T02:30:36;101877.84;;;19.70
70333;BMP280;57747;43.548;-5.704;2022-09-09T02:33:05;101881.06;;;19.64
70333;BMP280;57747;43.548;-5.704;2022-09-09T02:35:32;101869.03;;;19.65
70333;BMP280;57747;43.548;-5.704;2022-09-09T02:38:09;101873.19;;;19.71
70333;BMP280;57747;43.548;-5.704;2022-09-09T02:40:35;101877.09;;;19.79
70333;BMP280;57747;43.548;-5.704;2022-09-09T02:43:01;101873.41;;;19.83
70333;BMP280;57747;43.548;-5.704;2022-09-09T02:45:34;101867.94;;;19.83
70333;BMP280;57747;43.548;-5.704;2022-09-09T02:48:20;101871.63;;;19.79
70333;BMP280;57747;43.548;-5.704;2022-09-09T02:51:08;101871.16;;;19.77
70333;BMP280;57747;43.548;-5.704;2022-09-09T02:56:26;101865.03;;;19.71
70333;BMP280;57747;43.548;-5.704;2022-09-09T02:58:55;101868.25;;;19.64
70333;BMP280;57747;43.548;-5.704;2022-09-09T03:04:39;101875.31;;;19.74
70333;BMP280;57747;43.548;-5.704;2022-09-09T03:07:14;101866.50;;;19.68
70333;BMP280;57747;43.548;-5.704;2022-09-09T03:09:41;101874.66;;;19.68
70333;BMP280;57747;43.548;-5.704;2022-09-09T03:22:15;101859.09;;;19.60
70333;BMP280;57747;43.548;-5.704;2022-09-09T03:24:42;101866.63;;;19.63
70333;BMP280;57747;43.548;-5.704;2022-09-09T03:27:12;101860.84;;;19.56
70333;BMP280;57747;43.548;-5.704;2022-09-09T03:29:40;101858.59;;;19.58
70333;BMP280;57747;43.548;-5.704;2022-09-09T03:32:05;101856.38;;;19.60
70333;BMP280;57747;43.548;-5.704;2022-09-09T03:34:31;101861.63;;;19.57
70333;BMP280;57747;43.548;-5.704;2022-09-09T03:36:57;101854.75;;;19.50
70333;BMP280;57747;43.548;-5.704;2022-09-09T03:39:23;101858.59;;;19.49
70333;BMP280;57747;43.548;-5.704;2022-09-09T03:41:49;101857.28;;;19.47
70333;BMP280;57747;43.548;-5.704;2022-09-09T03:44:14;101862.75;;;19.56
70333;BMP280;57747;43.548;-5.704;2022-09-09T03:46:40;101860.69;;;19.52
70333;BMP280;57747;43.548;-5.704;2022-09-09T03:49:06;101858.91;;;19.57
70333;BMP280;57747;43.548;-5.704;2022-09-09T03:51:33;101850.13;;;19.51
70333;BMP280;57747;43.548;-5.704;2022-09-09T03:54:02;101859.44;;;19.59
70333;BMP280;57747;43.548;-5.704;2022-09-09T04:00:05;101852.06;;;19.59
70333;BMP280;57747;43.548;-5.704;2022-09-09T04:02:31;101850.44;;;19.58
70333;BMP280;57747;43.548;-5.704;2022-09-09T04:04:59;101847.25;;;19.56
70333;BMP280;57747;43.548;-5.704;2022-09-09T04:07:26;101846.25;;;19.52
70333;BMP280;57747;43.548;-5.704;2022-09-09T04:09:53;101846.25;;;19.52
70333;BMP280;57747;43.548;-5.704;2022-09-09T04:12:19;101854.28;;;19.57
70333;BMP280;57747;43.548;-5.704;2022-09-09T04:14:46;101846.25;;;19.52
70333;BMP280;57747;43.548;-5.704;2022-09-09T04:17:11;101853.16;;;19.58
70333;BMP280;57747;43.548;-5.704;2022-09-09T04:19:37;101851.88;;;19.56
70333;BMP280;57747;43.548;-5.704;2022-09-09T04:22:05;101849.78;;;19.52
70333;BMP280;57747;43.548;-5.704;2022-09-09T04:24:33;101854.25;;;19.48
70333;BMP280;57747;43.548;-5.704;2022-09-09T04:27:00;101855.56;;;19.51
70333;BMP280;57747;43.548;-5.704;2022-09-09T04:29:26;101851.03;;;19.46
70333;BMP280;57747;43.548;-5.704;2022-09-09T04:31:51;101849.59;;;19.40
70333;BMP280;57747;43.548;-5.704;2022-09-09T04:34:17;101853.06;;;19.32
70333;BMP280;57747;43.548;-5.704;2022-09-09T04:36:42;101849.91;;;19.39
70333;BMP280;57747;43.548;-5.704;2022-09-09T04:39:08;101862.09;;;19.19
70333;BMP280;57747;43.548;-5.704;2022-09-09T04:41:33;101858.72;;;19.13
70333;BMP280;57747;43.548;-5.704;2022-09-09T04:43:59;101859.84;;;19.12
70333;BMP280;57747;43.548;-5.704;2022-09-09T04:46:26;101854.22;;;19.08
70333;BMP280;57747;43.548;-5.704;2022-09-09T04:48:51;101857.91;;;19.12
70333;BMP280;57747;43.548;-5.704;2022-09-09T04:51:18;101864.00;;;19.09
70333;BMP280;57747;43.548;-5.704;2022-09-09T04:53:44;101858.56;;;19.09
70333;BMP280;57747;43.548;-5.704;2022-09-09T04:56:15;101861.66;;;18.94
70333;BMP280;57747;43.548;-5.704;2022-09-09T04:58:41;101860.09;;;19.02
70333;BMP280;57747;43.548;-5.704;2022-09-09T05:01:19;101869.59;;;19.13
70333;BMP280;57747;43.548;-5.704;2022-09-09T05:03:47;101866.88;;;19.13
70333;BMP280;57747;43.548;-5.704;2022-09-09T05:06:15;101877.66;;;18.95
70333;BMP280;57747;43.548;-5.704;2022-09-09T05:08:44;101876.84;;;18.95
70333;BMP280;57747;43.548;-5.704;2022-09-09T05:11:23;101874.22;;;18.90
70333;BMP280;57747;43.548;-5.704;2022-09-09T05:13:50;101866.44;;;18.97
70333;BMP280;57747;43.548;-5.704;2022-09-09T05:16:16;101875.56;;;19.01
70333;BMP280;57747;43.548;-5.704;2022-09-09T05:18:42;101877.38;;;19.06
70333;BMP280;57747;43.548;-5.704;2022-09-09T05:21:08;101875.16;;;19.08
70333;BMP280;57747;43.548;-5.704;2022-09-09T05:23:34;101879.28;;;19.05
70333;BMP280;57747;43.548;-5.704;2022-09-09T05:26:01;101878.56;;;18.91
70333;BMP280;57747;43.548;-5.704;2022-09-09T05:28:27;101883.28;;;18.99
70333;BMP280;57747;43.548;-5.704;2022-09-09T05:31:01;101887.25;;;19.02
70333;BMP280;57747;43.548;-5.704;2022-09-09T05:33:31;101881.19;;;18.82
70333;BMP280;57747;43.548;-5.704;2022-09-09T05:36:05;101882.03;;;18.83
70333;BMP280;57747;43.548;-5.704;2022-09-09T05:38:32;101876.09;;;18.81
70333;BMP280;57747;43.548;-5.704;2022-09-09T05:40:58;101879.63;;;18.81
70333;BMP280;57747;43.548;-5.704;2022-09-09T05:43:25;101881.06;;;18.87
70333;BMP280;57747;43.548;-5.704;2022-09-09T05:46:09;101887.59;;;18.86
70333;BMP280;57747;43.548;-5.704;2022-09-09T05:48:38;101889.34;;;18.82
70333;BMP280;57747;43.548;-5.704;2022-09-09T05:51:09;101886.56;;;18.73
70333;BMP280;57747;43.548;-5.704;2022-09-09T05:53:36;101887.41;;;18.74
70333;BMP280;57747;43.548;-5.704;2022-09-09T05:56:07;101895.69;;;18.77
70333;BMP280;57747;43.548;-5.704;2022-09-09T05:58:33;101887.41;;;18.74
70333;BMP280;57747;43.548;-5.704;2022-09-09T06:01:14;101890.00;;;18.79
70333;BMP280;57747;43.548;-5.704;2022-09-09T06:03:45;101903.84;;;18.77
70333;BMP280;57747;43.548;-5.704;2022-09-09T06:06:15;101899.25;;;18.78
70333;BMP280;57747;43.548;-5.704;2022-09-09T06:08:45;101902.56;;;18.75
70333;BMP280;57747;43.548;-5.704;2022-09-09T06:13:43;101905.13;;;18.71
70333;BMP280;57747;43.548;-5.704;2022-09-09T06:16:14;101898.19;;;18.65
70333;BMP280;57747;43.548;-5.704;2022-09-09T06:18:40;101892.75;;;18.65
70333;BMP280;57747;43.548;-5.704;2022-09-09T06:21:09;101900.72;;;18.62
70333;BMP280;57747;43.548;-5.704;2022-09-09T06:23:36;101898.50;;;18.50
70333;BMP280;57747;43.548;-5.704;2022-09-09T06:26:08;101908.03;;;18.61
70333;BMP280;57747;43.548;-5.704;2022-09-09T06:28:37;101906.72;;;18.58
70333;BMP280;57747;43.548;-5.704;2022-09-09T06:31:09;101902.13;;;18.59
70333;BMP280;57747;43.548;-5.704;2022-09-09T06:33:36;101915.41;;;18.61
70333;BMP280;57747;43.548;-5.704;2022-09-09T06:36:05;101911.13;;;18.68
70333;BMP280;57747;43.548;-5.704;2022-09-09T06:38:33;101913.06;;;18.68
70333;BMP280;57747;43.548;-5.704;2022-09-09T06:40:59;101912.00;;;18.77
70333;BMP280;57747;43.548;-5.704;2022-09-09T06:43:25;101917.66;;;18.81
70333;BMP280;57747;43.548;-5.704;2022-09-09T06:45:59;101917.22;;;18.88
70333;BMP280;57747;43.548;-5.704;2022-09-09T06:48:28;101923.97;;;18.90
70333;BMP280;57747;43.548;-5.704;2022-09-09T06:51:08;101928.75;;;18.93
70333;BMP280;57747;43.548;-5.704;2022-09-09T06:53:35;101933.78;;;18.86
70333;BMP280;57747;43.548;-5.704;2022-09-09T06:56:02;101932.13;;;18.90
70333;BMP280;57747;43.548;-5.704;2022-09-09T06:58:41;101939.22;;;19.00
70333;BMP280;57747;43.548;-5.704;2022-09-09T07:01:12;101939.03;;;18.96
70333;BMP280;57747;43.548;-5.704;2022-09-09T07:03:39;101932.97;;;19.00
70333;BMP280;57747;43.548;-5.704;2022-09-09T07:06:05;101936.44;;;18.91
70333;BMP280;57747;43.548;-5.704;2022-09-09T07:08:31;101934.25;;;19.02
70333;BMP280;57747;43.548;-5.704;2022-09-09T07:11:05;101940.00;;;19.01
70333;BMP280;57747;43.548;-5.704;2022-09-09T07:13:30;101942.00;;;19.09
70333;BMP280;57747;43.548;-5.704;2022-09-09T07:16:07;101944.53;;;19.28
70333;BMP280;57747;43.548;-5.704;2022-09-09T07:18:33;101941.59;;;19.47
70333;BMP280;57747;43.548;-5.704;2022-09-09T07:20:58;101940.63;;;19.83
70333;BMP280;57747;43.548;-5.704;2022-09-09T07:23:33;101945.69;;;20.07
70333;BMP280;57747;43.548;-5.704;2022-09-09T07:26:00;101942.19;;;20.24
70333;BMP280;57747;43.548;-5.704;2022-09-09T07:28:26;101945.09;;;20.27
70333;BMP280;57747;43.548;-5.704;2022-09-09T07:31:00;101941.44;;;20.41
70333;BMP280;57747;43.548;-5.704;2022-09-09T07:33:30;101946.25;;;20.53
70333;BMP280;57747;43.548;-5.704;2022-09-09T07:36:08;101940.97;;;20.56
70333;BMP280;57747;43.548;-5.704;2022-09-09T07:41:13;101938.84;;;20.53
70333;BMP280;57747;43.548;-5.704;2022-09-09T07:43:44;101945.28;;;20.48
70333;BMP280;57747;43.548;-5.704;2022-09-09T07:46:11;101943.34;;;20.58
70333;BMP280;57747;43.548;-5.704;2022-09-09T07:48:38;101952.97;;;20.55
70333;BMP280;57747;43.548;-5.704;2022-09-09T07:51:15;101943.19;;;20.72
70333;BMP280;57747;43.548;-5.704;2022-09-09T07:53:43;101950.59;;;20.80
70333;BMP280;57747;43.548;-5.704;2022-09-09T07:56:11;101951.38;;;20.80
70333;BMP280;57747;43.548;-5.704;2022-09-09T07:58:42;101960.66;;;20.88
70333;BMP280;57747;43.548;-5.704;2022-09-09T08:01:10;101958.22;;;21.13
70333;BMP280;57747;43.548;-5.704;2022-09-09T08:03:39;101951.50;;;21.19
70333;BMP280;57747;43.548;-5.704;2022-09-09T08:06:07;101954.56;;;21.09
70333;BMP280;57747;43.548;-5.704;2022-09-09T08:08:34;101956.94;;;21.19
70333;BMP280;57747;43.548;-5.704;2022-09-09T08:11:22;101959.91;;;21.52
70333;BMP280;57747;43.548;-5.704;2022-09-09T08:13:49;101955.41;;;21.48
70333;BMP280;57747;43.548;-5.704;2022-09-09T08:16:17;101954.38;;;21.70
70333;BMP280;57747;43.548;-5.704;2022-09-09T08:18:43;101958.38;;;21.72
70333;BMP280;57747;43.548;-5.704;2022-09-09T08:21:13;101963.75;;;21.90
70333;BMP280;57747;43.548;-5.704;2022-09-09T08:23:40;101967.22;;;21.99
70333;BMP280;57747;43.548;-5.704;2022-09-09T08:28:36;101971.00;;;22.15
70333;BMP280;57747;43.548;-5.704;2022-09-09T08:31:13;101963.13;;;22.14
70333;BMP280;57747;43.548;-5.704;2022-09-09T08:33:40;101960.03;;;22.24
70333;BMP280;57747;43.548;-5.704;2022-09-09T08:36:08;101965.44;;;22.33
70333;BMP280;57747;43.548;-5.704;2022-09-09T08:38:35;101959.75;;;22.17
70333;BMP280;57747;43.548;-5.704;2022-09-09T08:43:58;101969.03;;;21.95
70333;BMP280;57747;43.548;-5.704;2022-09-09T08:46:35;101973.34;;;22.26
70333;BMP280;57747;43.548;-5.704;2022-09-09T08:55:05;101976.59;;;22.40
70333;BMP280;57747;43.548;-5.704;2022-09-09T08:57:35;101983.53;;;22.37
70333;BMP280;57747;43.548;-5.704;2022-09-09T09:00:04;101978.94;;;22.29
70333;BMP280;57747;43.548;-5.704;2022-09-09T09:09:01;101974.00;;;22.44
70333;BMP280;57747;43.548;-5.704;2022-09-09T09:11:24;101970.16;;;22.66
70333;BMP280;57747;43.548;-5.704;2022-09-09T09:14:08;101991.38;;;22.81
70333;BMP280;57747;43.548;-5.704;2022-09-09T09:16:44;101988.13;;;22.88
70333;BMP280;57747;43.548;-5.704;2022-09-09T09:19:15;101979.53;;;22.35
70333;BMP280;57747;43.548;-5.704;2022-09-09T09:24:49;101997.00;;;22.22
70333;BMP280;57747;43.548;-5.704;2022-09-09T09:27:23;102004.03;;;21.93
70333;BMP280;57747;43.548;-5.704;2022-09-09T09:29:51;102007.56;;;22.23
70333;BMP280;57747;43.548;-5.704;2022-09-09T09:32:20;101995.38;;;22.50
70333;BMP280;57747;43.548;-5.704;2022-09-09T09:34:56;102011.25;;;22.90
70333;BMP280;57747;43.548;-5.704;2022-09-09T09:37:31;102016.38;;;22.71
70333;BMP280;57747;43.548;-5.704;2022-09-09T09:40:13;102018.72;;;22.81
70333;BMP280;57747;43.548;-5.704;2022-09-09T09:42:51;102008.75;;;23.31
70333;BMP280;57747;43.548;-5.704;2022-09-09T09:48:05;102009.69;;;23.60
70333;BMP280;57747;43.548;-5.704;2022-09-09T09:50:32;102020.22;;;23.82
70333;BMP280;57747;43.548;-5.704;2022-09-09T09:53:02;102023.38;;;23.60
70333;BMP280;57747;43.548;-5.704;2022-09-09T09:55:30;102025.31;;;23.47
70333;BMP280;57747;43.548;-5.704;2022-09-09T09:58:04;102015.88;;;24.06
70333;BMP280;57747;43.548;-5.704;2022-09-09T10:00:29;102014.59;;;23.42
70333;BMP280;57747;43.548;-5.704;2022-09-09T10:02:55;102019.34;;;23.32
70333;BMP280;57747;43.548;-5.704;2022-09-09T10:05:24;102024.03;;;23.44
70333;BMP280;57747;43.548;-5.704;2022-09-09T10:08:11;102018.81;;;24.01
70333;BMP280;57747;43.548;-5.704;2022-09-09T10:13:36;102023.84;;;24.51
70333;BMP280;57747;43.548;-5.704;2022-09-09T10:26:44;102021.38;;;24.46
70333;BMP280;57747;43.548;-5.704;2022-09-09T10:41:20;102017.81;;;23.81
70333;BMP280;57747;43.548;-5.704;2022-09-09T10:52:09;102014.56;;;24.03
70333;BMP280;57747;43.548;-5.704;2022-09-09T10:54:53;102018.38;;;24.11
70333;BMP280;57747;43.548;-5.704;2022-09-09T10:59:56;102012.53;;;24.12
70333;BMP280;57747;43.548;-5.704;2022-09-09T11:02:29;102020.75;;;24.12
70333;BMP280;57747;43.548;-5.704;2022-09-09T11:05:21;102020.91;;;24.44
70333;BMP280;57747;43.548;-5.704;2022-09-09T11:07:54;102010.44;;;24.22
70333;BMP280;57747;43.548;-5.704;2022-09-09T11:10:30;102015.63;;;24.11
70333;BMP280;57747;43.548;-5.704;2022-09-09T11:13:03;102022.00;;;24.27
70333;BMP280;57747;43.548;-5.704;2022-09-09T11:15:42;102014.59;;;24.56
70333;BMP280;57747;43.548;-5.704;2022-09-09T11:18:14;102014.09;;;24.66
70333;BMP280;57747;43.548;-5.704;2022-09-09T11:20:42;102016.50;;;24.68
70333;BMP280;57747;43.548;-5.704;2022-09-09T11:23:18;102014.41;;;24.49
70333;BMP280;57747;43.548;-5.704;2022-09-09T11:25:58;102020.09;;;24.84
70333;BMP280;57747;43.548;-5.704;2022-09-09T11:29:03;102008.88;;;24.89
70333;BMP280;57747;43.548;-5.704;2022-09-09T11:31:45;102012.75;;;24.88
70333;BMP280;57747;43.548;-5.704;2022-09-09T11:37:23;102012.00;;;24.76
70333;BMP280;57747;43.548;-5.704;2022-09-09T11:40:30;102010.38;;;25.03
70333;BMP280;57747;43.548;-5.704;2022-09-09T11:43:24;102002.34;;;25.10
70333;BMP280;57747;43.548;-5.704;2022-09-09T11:45:52;102010.53;;;24.94
70333;BMP280;57747;43.548;-5.704;2022-09-09T11:48:32;102001.03;;;25.36
70333;BMP280;57747;43.548;-5.704;2022-09-09T11:51:05;102006.44;;;25.48
70333;BMP280;57747;43.548;-5.704;2022-09-09T11:53:33;102010.78;;;25.49
70333;BMP280;57747;43.548;-5.704;2022-09-09T11:58:37;102019.66;;;24.82
70333;BMP280;57747;43.548;-5.704;2022-09-09T12:01:27;102003.38;;;25.53
70333;BMP280;57747;43.548;-5.704;2022-09-09T12:06:41;102011.47;;;25.30
70333;BMP280;57747;43.548;-5.704;2022-09-09T12:09:31;102012.50;;;25.57
70333;BMP280;57747;43.548;-5.704;2022-09-09T12:17:27;102018.75;;;25.38
70333;BMP280;57747;43.548;-5.704;2022-09-09T12:20:21;101999.84;;;25.05
70333;BMP280;57747;43.548;-5.704;2022-09-09T12:23:13;102013.91;;;25.83
70333;BMP280;57747;43.548;-5.704;2022-09-09T12:26:04;102021.44;;;24.90
70333;BMP280;57747;43.548;-5.704;2022-09-09T12:29:06;102005.59;;;25.00
70333;BMP280;57747;43.548;-5.704;2022-09-09T12:37:05;102026.50;;;25.36
70333;BMP280;57747;43.548;-5.704;2022-09-09T12:39:35;102023.41;;;24.78
70333;BMP280;57747;43.548;-5.704;2022-09-09T12:42:02;102025.47;;;24.81
70333;BMP280;57747;43.548;-5.704;2022-09-09T12:44:29;102017.78;;;24.58
70333;BMP280;57747;43.548;-5.704;2022-09-09T12:46:58;102020.13;;;25.16
70333;BMP280;57747;43.548;-5.704;2022-09-09T12:49:31;102007.41;;;24.80
70333;BMP280;57747;43.548;-5.704;2022-09-09T12:52:04;102012.28;;;25.30
70333;BMP280;57747;43.548;-5.704;2022-09-09T12:54:34;102013.88;;;24.87
70333;BMP280;57747;43.548;-5.704;2022-09-09T12:57:00;102015.97;;;25.22
70333;BMP280;57747;43.548;-5.704;2022-09-09T12:59:35;102016.78;;;25.07
70333;BMP280;57747;43.548;-5.704;2022-09-09T13:02:01;102012.78;;;25.68
70333;BMP280;57747;43.548;-5.704;2022-09-09T13:04:27;102016.06;;;25.58
70333;BMP280;57747;43.548;-5.704;2022-09-09T13:07:06;102015.91;;;25.50
70333;BMP280;57747;43.548;-5.704;2022-09-09T13:09:32;102011.94;;;24.88
70333;BMP280;57747;43.548;-5.704;2022-09-09T13:11:58;102020.09;;;24.56
70333;BMP280;57747;43.548;-5.704;2022-09-09T13:14:30;102019.59;;;25.26
70333;BMP280;57747;43.548;-5.704;2022-09-09T13:17:02;102014.09;;;25.74
70333;BMP280;57747;43.548;-5.704;2022-09-09T13:19:36;102015.34;;;25.77
70333;BMP280;57747;43.548;-5.704;2022-09-09T13:22:14;102010.56;;;25.58
70333;BMP280;57747;43.548;-5.704;2022-09-09T13:24:43;102003.59;;;25.44
70333;BMP280;57747;43.548;-5.704;2022-09-09T13:27:26;102007.50;;;25.59
70333;BMP280;57747;43.548;-5.704;2022-09-09T13:29:54;102011.03;;;25.28
70333;BMP280;57747;43.548;-5.704;2022-09-09T13:32:21;102014.47;;;25.57
70333;BMP280;57747;43.548;-5.704;2022-09-09T13:34:55;102011.19;;;25.03
70333;BMP280;57747;43.548;-5.704;2022-09-09T13:37:33;102004.72;;;25.11
70333;BMP280;57747;43.548;-5.704;2022-09-09T13:40:00;102013.88;;;24.87
70333;BMP280;57747;43.548;-5.704;2022-09-09T13:42:32;102016.84;;;24.66
70333;BMP280;57747;43.548;-5.704;2022-09-09T13:45:00;102014.09;;;24.95
70333;BMP280;57747;43.548;-5.704;2022-09-09T13:47:30;102014.41;;;24.77
70333;BMP280;57747;43.548;-5.704;2022-09-09T13:49:57;102011.94;;;25.83
70333;BMP280;57747;43.548;-5.704;2022-09-09T13:52:26;102005.59;;;26.34
70333;BMP280;57747;43.548;-5.704;2022-09-09T13:54:52;102001.88;;;26.07
70333;BMP280;57747;43.548;-5.704;2022-09-09T13:57:24;102010.31;;;26.57
70333;BMP280;57747;43.548;-5.704;2022-09-09T13:59:51;102011.41;;;26.13
70333;BMP280;57747;43.548;-5.704;2022-09-09T14:02:18;102011.97;;;26.22
70333;BMP280;57747;43.548;-5.704;2022-09-09T14:04:44;102007.03;;;25.41
70333;BMP280;57747;43.548;-5.704;2022-09-09T14:07:14;102008.78;;;24.86
70333;BMP280;57747;43.548;-5.704;2022-09-09T14:09:41;102009.16;;;25.99
70333;BMP280;57747;43.548;-5.704;2022-09-09T14:12:11;102002.75;;;26.30
70333;BMP280;57747;43.548;-5.704;2022-09-09T14:14:37;102007.19;;;26.00
70333;BMP280;57747;43.548;-5.704;2022-09-09T14:17:02;102004.72;;;25.95
70333;BMP280;57747;43.548;-5.704;2022-09-09T14:19:29;102006.34;;;25.96
70333;BMP280;57747;43.548;-5.704;2022-09-09T14:21:56;102009.34;;;25.39
70333;BMP280;57747;43.548;-5.704;2022-09-09T14:24:22;102007.22;;;25.17
70333;BMP280;57747;43.548;-5.704;2022-09-09T14:26:48;102010.16;;;25.56
70333;BMP280;57747;43.548;-5.704;2022-09-09T14:29:13;101998.22;;;25.67
70333;BMP280;57747;43.548;-5.704;2022-09-09T14:31:39;102003.25;;;25.81
70333;BMP280;57747;43.548;-5.704;2022-09-09T14:34:04;102009.38;;;25.90
70333;BMP280;57747;43.548;-5.704;2022-09-09T14:36:30;102010.84;;;25.53
70333;BMP280;57747;43.548;-5.704;2022-09-09T14:38:56;102013.19;;;26.25
70333;BMP280;57747;43.548;-5.704;2022-09-09T14:41:22;102012.34;;;26.01
70333;BMP280;57747;43.548;-5.704;2022-09-09T14:43:49;102009.91;;;26.35
70333;BMP280;57747;43.548;-5.704;2022-09-09T14:46:16;102011.59;;;26.82
70333;BMP280;57747;43.548;-5.704;2022-09-09T14:48:42;101992.63;;;25.44
70333;BMP280;57747;43.548;-5.704;2022-09-09T14:51:22;101996.13;;;25.77
70333;BMP280;57747;43.548;-5.704;2022-09-09T14:53:51;101998.56;;;25.82
70333;BMP280;57747;43.548;-5.704;2022-09-09T14:56:19;101996.78;;;25.89
70333;BMP280;57747;43.548;-5.704;2022-09-09T14:58:49;101990.41;;;26.63
70333;BMP280;57747;43.548;-5.704;2022-09-09T15:01:17;101990.97;;;26.30
70333;BMP280;57747;43.548;-5.704;2022-09-09T15:03:50;101989.50;;;26.17
70333;BMP280;57747;43.548;-5.704;2022-09-09T15:06:16;101991.28;;;26.90
70333;BMP280;57747;43.548;-5.704;2022-09-09T15:08:43;101989.75;;;26.70
70333;BMP280;57747;43.548;-5.704;2022-09-09T15:11:10;101988.75;;;26.59
70333;BMP280;57747;43.548;-5.704;2022-09-09T15:13:37;101983.44;;;26.07
70333;BMP280;57747;43.548;-5.704;2022-09-09T15:16:08;101979.22;;;26.14
70333;BMP280;57747;43.548;-5.704;2022-09-09T15:18:34;101984.81;;;26.17
70333;BMP280;57747;43.548;-5.704;2022-09-09T15:21:01;101984.56;;;25.52
70333;BMP280;57747;43.548;-5.704;2022-09-09T15:23:28;101989.31;;;25.23
70333;BMP280;57747;43.548;-5.704;2022-09-09T15:25:56;101988.88;;;25.53
70333;BMP280;57747;43.548;-5.704;2022-09-09T15:28:22;101978.16;;;25.63
70333;BMP280;57747;43.548;-5.704;2022-09-09T15:30:51;101976.63;;;25.66
70333;BMP280;57747;43.548;-5.704;2022-09-09T15:33:18;101978.69;;;25.53
70333;BMP280;57747;43.548;-5.704;2022-09-09T15:35:43;101975.25;;;25.56
70333;BMP280;57747;43.548;-5.704;2022-09-09T15:38:09;101980.16;;;26.02
70333;BMP280;57747;43.548;-5.704;2022-09-09T15:40:35;101978.38;;;26.09
70333;BMP280;57747;43.548;-5.704;2022-09-09T15:43:05;101973.03;;;26.17
70333;BMP280;57747;43.548;-5.704;2022-09-09T15:45:32;101968.59;;;26.51
70333;BMP280;57747;43.548;-5.704;2022-09-09T15:48:11;101971.22;;;26.44
70333;BMP280;57747;43.548;-5.704;2022-09-09T15:50:44;101960.59;;;25.68
70333;BMP280;57747;43.548;-5.704;2022-09-09T15:53:10;101968.50;;;24.90
70333;BMP280;57747;43.548;-5.704;2022-09-09T15:55:36;101965.53;;;25.27
70333;BMP280;57747;43.548;-5.704;2022-09-09T15:58:05;101961.81;;;25.03
70333;BMP280;57747;43.548;-5.704;2022-09-09T16:00:32;101955.00;;;25.13
70333;BMP280;57747;43.548;-5.704;2022-09-09T16:02:59;101949.19;;;25.66
70333;BMP280;57747;43.548;-5.704;2022-09-09T16:05:25;101953.78;;;25.97
70333;BMP280;57747;43.548;-5.704;2022-09-09T16:07:51;101954.63;;;25.82
70333;BMP280;57747;43.548;-5.704;2022-09-09T16:10:17;101950.94;;;25.74
70333;BMP280;57747;43.548;-5.704;2022-09-09T16:12:43;101953.56;;;26.06
70333;BMP280;57747;43.548;-5.704;2022-09-09T16:15:08;101951.94;;;26.05
70333;BMP280;57747;43.548;-5.704;2022-09-09T16:17:34;101950.09;;;24.75
70333;BMP280;57747;43.548;-5.704;2022-09-09T16:20:03;101946.44;;;25.66
70333;BMP280;57747;43.548;-5.704;2022-09-09T16:22:33;101942.78;;;25.97
70333;BMP280;57747;43.548;-5.704;2022-09-09T16:24:59;101946.91;;;26.07
70333;BMP280;57747;43.548;-5.704;2022-09-09T16:27:24;101936.97;;;25.47
70333;BMP280;57747;43.548;-5.704;2022-09-09T16:29:50;101943.47;;;26.10
70333;BMP280;57747;43.548;-5.704;2022-09-09T16:32:16;101940.31;;;26.12
70333;BMP280;57747;43.548;-5.704;2022-09-09T16:34:42;101947.53;;;25.81
70333;BMP280;57747;43.548;-5.704;2022-09-09T16:37:08;101942.09;;;25.65
70333;BMP280;57747;43.548;-5.704;2022-09-09T16:39:33;101936.84;;;25.24
70333;BMP280;57747;43.548;-5.704;2022-09-09T16:41:59;101947.94;;;25.63
70333;BMP280;57747;43.548;-5.704;2022-09-09T16:44:25;101944.06;;;25.33